createdAt,value
2019-02-02T00:02:18.780Z,20.83
2019-02-02T00:04:48.358Z,16.90
2019-02-02T00:07:17.792Z,16.90
2019-02-02T00:09:47.380Z,18.63
2019-02-02T00:12:16.795Z,18.30
2019-02-02T00:14:46.394Z,17.77
2019-02-02T00:17:15.857Z,21.30
2019-02-02T00:19:45.329Z,16.60
2019-02-02T00:22:14.751Z,16.10
2019-02-02T00:24:44.197Z,17.43
2019-02-02T00:27:13.622Z,18.40
2019-02-02T00:29:43.099Z,16.67
2019-02-02T00:32:12.509Z,19.40
2019-02-02T00:34:42.154Z,18.90
2019-02-02T00:37:11.580Z,17.00
2019-02-02T00:39:41.027Z,17.83
2019-02-02T00:42:10.562Z,17.33
2019-02-02T00:44:40.008Z,22.47
2019-02-02T00:47:21.528Z,18.70
2019-02-02T00:49:50.970Z,17.40
2019-02-02T00:52:20.399Z,16.47
2019-02-02T00:54:49.850Z,17.00
2019-02-02T00:57:19.314Z,18.60
2019-02-02T00:59:48.764Z,16.40
2019-02-02T01:02:18.398Z,16.13
2019-02-02T01:04:47.848Z,16.03
2019-02-02T01:07:17.468Z,16.13
2019-02-02T01:09:46.948Z,16.60
2019-02-02T01:12:16.362Z,17.30
2019-02-02T01:14:45.845Z,18.10
2019-02-02T01:17:15.332Z,17.80
2019-02-02T01:19:44.790Z,17.60
2019-02-02T01:22:14.268Z,17.60
2019-02-02T01:24:43.722Z,17.50
2019-02-02T01:27:13.217Z,18.10
2019-02-02T01:29:42.696Z,16.43
2019-02-02T01:32:13.946Z,15.77
2019-02-02T01:34:43.211Z,16.10
2019-02-02T01:37:12.635Z,17.33
2019-02-02T01:39:42.089Z,16.33
2019-02-02T01:42:11.525Z,17.43
2019-02-02T01:44:40.989Z,17.10
2019-02-02T01:47:10.417Z,16.43
2019-02-02T01:49:39.860Z,16.87
2019-02-02T01:52:09.319Z,16.20
2019-02-02T01:54:38.771Z,17.47
2019-02-02T01:57:08.273Z,17.53
2019-02-02T01:59:37.710Z,16.13
2019-02-02T02:02:07.190Z,17.20
2019-02-02T02:04:36.626Z,16.30
2019-02-02T02:07:06.073Z,16.47
2019-02-02T02:09:35.499Z,16.97
2019-02-02T02:12:05.025Z,16.80
2019-02-02T02:14:34.446Z,16.57
2019-02-02T02:17:03.897Z,15.87
2019-02-02T02:19:33.330Z,16.03
2019-02-02T02:22:02.794Z,17.50
2019-02-02T02:24:32.209Z,17.27
2019-02-02T02:27:01.674Z,15.87
2019-02-02T02:29:31.150Z,17.47
2019-02-02T02:32:00.719Z,17.70
2019-02-02T02:34:30.132Z,17.83
2019-02-02T02:36:59.586Z,17.07
2019-02-02T02:39:29.018Z,16.20
2019-02-02T02:41:58.489Z,15.90
2019-02-02T02:44:27.954Z,16.27
2019-02-02T02:46:57.411Z,17.10
2019-02-02T02:49:26.828Z,15.47
2019-02-02T02:51:56.401Z,16.10
2019-02-02T02:54:25.850Z,15.27
2019-02-02T02:56:55.352Z,16.20
2019-02-02T02:59:24.795Z,16.93
2019-02-02T03:01:54.261Z,15.70
2019-02-02T03:04:23.685Z,15.87
2019-02-02T03:06:53.144Z,16.40
2019-02-02T03:09:22.559Z,15.50
2019-02-02T03:11:52.013Z,15.90
2019-02-02T03:14:21.513Z,15.00
2019-02-02T03:16:50.960Z,15.70
2019-02-02T03:19:21.697Z,15.67
2019-02-02T03:21:51.149Z,14.90
2019-02-02T03:24:20.567Z,15.20
2019-02-02T03:26:50.045Z,17.67
2019-02-02T03:29:19.462Z,16.70
2019-02-02T03:31:49.026Z,16.13
2019-02-02T03:34:18.434Z,15.90
2019-02-02T03:36:47.895Z,16.47
2019-02-02T03:39:17.320Z,17.17
2019-02-02T03:41:46.787Z,17.30
2019-02-02T03:44:16.231Z,17.50
2019-02-02T03:46:45.688Z,17.87
2019-02-02T03:49:15.108Z,15.50
2019-02-02T03:51:44.582Z,15.87
2019-02-02T03:54:14.004Z,16.20
2019-02-02T03:56:43.463Z,16.50
2019-02-02T03:59:12.928Z,15.90
2019-02-02T04:01:42.396Z,14.90
2019-02-02T04:04:11.842Z,16.40
2019-02-02T04:06:41.266Z,15.23
2019-02-02T04:09:10.711Z,15.00
2019-02-02T04:11:43.300Z,16.83
2019-02-02T04:14:11.230Z,16.23
2019-02-02T04:16:40.695Z,15.90
2019-02-02T04:19:10.155Z,16.63
2019-02-02T04:21:39.562Z,16.17
2019-02-02T04:24:09.029Z,16.50
2019-02-02T04:26:38.452Z,16.83
2019-02-02T04:29:17.627Z,15.80
2019-02-02T04:31:39.015Z,17.73
2019-02-02T04:34:08.544Z,16.93
2019-02-02T04:36:37.966Z,16.47
2019-02-02T04:39:08.583Z,17.40
2019-02-02T04:41:38.003Z,16.33
2019-02-02T04:44:07.459Z,16.70
2019-02-02T04:46:36.869Z,16.57
2019-02-02T04:49:06.392Z,15.33
2019-02-02T04:51:35.834Z,15.30
2019-02-02T04:54:05.495Z,16.83
2019-02-02T04:56:34.953Z,16.63
2019-02-02T04:59:04.419Z,17.40
2019-02-02T05:01:33.833Z,17.33
2019-02-02T05:04:03.367Z,17.10
2019-02-02T05:06:32.788Z,15.70
2019-02-02T05:09:02.282Z,17.83
2019-02-02T05:11:31.698Z,17.20
2019-02-02T05:14:01.144Z,17.10
2019-02-02T05:16:30.577Z,15.77
2019-02-02T05:19:00.064Z,16.40
2019-02-02T05:21:29.701Z,17.57
2019-02-02T05:23:59.165Z,17.20
2019-02-02T05:26:28.609Z,18.43
2019-02-02T05:28:58.074Z,16.53
2019-02-02T05:31:27.511Z,16.13
2019-02-02T05:33:57.664Z,16.80
2019-02-02T05:36:27.095Z,16.37
2019-02-02T05:38:56.569Z,15.80
2019-02-02T05:41:26.021Z,14.65
2019-02-02T05:43:55.493Z,18.20
2019-02-02T05:46:24.938Z,16.70
2019-02-02T05:48:54.395Z,15.80
2019-02-02T05:51:23.875Z,16.40
2019-02-02T05:53:53.301Z,16.53
2019-02-02T05:56:22.743Z,17.07
2019-02-02T05:58:52.221Z,14.90
2019-02-02T06:01:21.852Z,15.50
2019-02-02T06:03:51.497Z,15.70
2019-02-02T06:06:20.958Z,15.37
2019-02-02T06:08:50.386Z,16.00
2019-02-02T06:11:19.870Z,16.70
2019-02-02T06:13:49.290Z,17.83
2019-02-02T06:16:18.746Z,15.47
2019-02-02T06:18:48.169Z,16.07
2019-02-02T06:21:17.624Z,17.10
2019-02-02T06:23:47.082Z,16.53
2019-02-02T06:26:16.536Z,16.40
2019-02-02T06:28:46.081Z,16.77
2019-02-02T06:31:15.542Z,15.97
2019-02-02T06:33:44.968Z,17.43
2019-02-02T06:36:14.414Z,16.17
2019-02-02T06:38:43.833Z,15.20
2019-02-02T06:41:13.329Z,16.00
2019-02-02T06:43:42.754Z,15.73
2019-02-02T06:46:12.234Z,16.90
2019-02-02T06:48:41.713Z,16.17
2019-02-02T06:51:11.190Z,17.23
2019-02-02T06:53:40.609Z,16.10
2019-02-02T06:56:10.124Z,16.00
2019-02-02T06:58:39.549Z,17.33
2019-02-02T07:01:09.005Z,17.60
2019-02-02T07:03:38.437Z,16.43
2019-02-02T07:06:07.988Z,17.10
2019-02-02T07:08:37.405Z,15.83
2019-02-02T07:11:06.857Z,15.93
2019-02-02T07:13:36.290Z,16.70
2019-02-02T07:16:05.736Z,15.63
2019-02-02T07:18:35.190Z,16.03
2019-02-02T07:21:04.823Z,16.87
2019-02-02T07:23:34.265Z,16.03
2019-02-02T07:26:03.733Z,17.00
2019-02-02T07:28:33.274Z,16.10
2019-02-02T07:31:02.764Z,16.20
2019-02-02T07:33:32.185Z,16.70
2019-02-02T07:36:01.635Z,15.97
2019-02-02T07:38:31.070Z,15.07
2019-02-02T07:41:00.541Z,15.53
2019-02-02T07:43:29.986Z,15.00
2019-02-02T07:45:59.415Z,14.97
2019-02-02T07:48:28.865Z,15.43
2019-02-02T07:50:58.289Z,15.10
2019-02-02T07:53:27.749Z,15.47
2019-02-02T07:55:57.337Z,16.90
2019-02-02T07:58:26.826Z,16.00
2019-02-02T08:00:56.240Z,15.87
2019-02-02T08:03:25.982Z,16.13
2019-02-02T08:05:55.395Z,16.63
2019-02-02T08:08:24.852Z,17.13
2019-02-02T08:10:55.188Z,16.07
2019-02-02T08:13:24.723Z,16.67
2019-02-02T08:15:54.154Z,16.93
2019-02-02T08:18:23.706Z,16.57
2019-02-02T08:20:53.191Z,15.50
2019-02-02T08:23:22.648Z,16.53
2019-02-02T08:25:52.099Z,16.23
2019-02-02T08:28:21.927Z,16.80
2019-02-02T08:30:52.710Z,16.50
2019-02-02T08:33:22.277Z,19.07
2019-02-02T08:35:51.762Z,20.37
2019-02-02T08:38:21.230Z,21.93
2019-02-02T08:40:50.733Z,21.87
2019-02-02T08:43:20.183Z,18.00
2019-02-02T08:45:49.617Z,18.67
2019-02-02T08:48:19.085Z,18.77
2019-02-02T08:50:48.510Z,19.07
2019-02-02T08:53:19.078Z,17.60
2019-02-02T08:55:51.915Z,20.47
2019-02-02T08:58:22.050Z,19.33
2019-02-02T09:01:03.422Z,18.90
2019-02-02T09:03:22.694Z,18.00
2019-02-02T09:05:52.195Z,19.17
2019-02-02T09:08:21.675Z,20.77
2019-02-02T09:10:51.086Z,21.80
2019-02-02T09:13:20.659Z,20.70
2019-02-02T09:15:50.132Z,21.77
2019-02-02T09:18:20.009Z,21.50
2019-02-02T09:20:49.442Z,21.60
2019-02-02T09:23:18.934Z,19.60
2019-02-02T09:25:48.376Z,20.07
2019-02-02T09:28:17.842Z,20.57
2019-02-02T09:30:47.266Z,19.57
2019-02-02T09:33:18.351Z,21.42
2019-02-02T09:35:47.792Z,20.73
2019-02-02T09:38:17.227Z,20.27
2019-02-02T09:40:46.654Z,20.63
2019-02-02T09:43:16.160Z,18.07
2019-02-02T09:45:45.594Z,17.50
2019-02-02T09:48:16.138Z,18.40
2019-02-02T09:50:45.549Z,19.20
2019-02-02T09:53:15.015Z,18.43
2019-02-02T09:55:44.468Z,18.50
2019-02-02T09:58:14.210Z,18.30
2019-02-02T10:00:43.664Z,14.37
2019-02-02T10:03:13.094Z,16.03
2019-02-02T10:05:42.585Z,18.30
2019-02-02T10:08:12.032Z,19.00
2019-02-02T10:10:41.501Z,20.00
2019-02-02T10:13:10.976Z,17.27
2019-02-02T10:15:40.498Z,17.97
2019-02-02T10:18:10.025Z,16.80
2019-02-02T10:20:39.493Z,17.67
2019-02-02T10:23:08.990Z,16.50
2019-02-02T10:25:38.548Z,15.50
2019-02-02T10:28:08.020Z,14.37
2019-02-02T10:30:42.785Z,16.10
2019-02-02T10:33:13.185Z,14.77
2019-02-02T10:35:42.708Z,11.10
2019-02-02T10:38:12.372Z,17.67
2019-02-02T10:40:41.898Z,15.57
2019-02-02T10:43:11.401Z,15.53
2019-02-02T10:45:40.965Z,12.87
2019-02-02T10:48:10.649Z,12.90
2019-02-02T10:50:40.105Z,12.07
2019-02-02T10:53:09.574Z,12.10
2019-02-02T10:55:39.069Z,11.40
2019-02-02T10:58:08.835Z,12.10
2019-02-02T11:00:40.449Z,10.33
2019-02-02T11:03:09.891Z,9.93
2019-02-02T11:05:39.675Z,8.87
2019-02-02T11:08:09.142Z,10.30
2019-02-02T11:10:38.612Z,9.60
2019-02-02T11:13:08.325Z,8.23
2019-02-02T11:15:37.748Z,7.57
2019-02-02T11:18:07.796Z,7.00
2019-02-02T11:20:37.684Z,6.07
2019-02-02T11:23:07.441Z,7.03
2019-02-02T11:25:37.195Z,6.63
2019-02-02T11:28:06.971Z,6.30
2019-02-02T11:30:36.699Z,5.97
2019-02-02T11:33:06.293Z,6.20
2019-02-02T11:35:35.745Z,6.47
2019-02-02T11:38:05.265Z,5.43
2019-02-02T11:40:35.232Z,6.33
2019-02-02T11:43:04.844Z,6.23
2019-02-02T11:45:34.289Z,6.80
2019-02-02T11:48:03.737Z,7.00
2019-02-02T11:50:33.287Z,6.47
2019-02-02T11:53:02.725Z,6.30
2019-02-02T11:55:32.159Z,7.57
2019-02-02T11:58:01.655Z,5.00
2019-02-02T12:00:33.143Z,4.80
2019-02-02T12:03:04.436Z,5.27
2019-02-02T12:05:33.896Z,4.93
2019-02-02T12:08:03.598Z,5.40
2019-02-02T12:10:33.422Z,5.40
2019-02-02T12:13:02.893Z,4.90
2019-02-02T12:15:32.318Z,5.13
2019-02-02T12:18:01.864Z,4.90
2019-02-02T12:20:33.176Z,5.20
2019-02-02T12:23:02.386Z,4.73
2019-02-02T12:25:31.827Z,5.13
2019-02-02T12:28:01.345Z,6.03
2019-02-02T12:30:32.612Z,4.37
2019-02-02T12:33:03.264Z,8.80
2019-02-02T12:35:33.197Z,5.13
2019-02-02T12:38:02.730Z,5.50
2019-02-02T12:40:32.186Z,5.17
2019-02-02T12:43:01.637Z,4.83
2019-02-02T12:45:43.173Z,4.50
2019-02-02T12:48:12.707Z,4.87
2019-02-02T12:50:42.236Z,4.47
2019-02-02T12:53:11.753Z,4.60
2019-02-02T12:55:41.268Z,5.10
2019-02-02T12:58:10.795Z,6.10
2019-02-02T13:00:40.420Z,4.60
2019-02-02T13:03:09.959Z,4.50
2019-02-02T13:05:41.195Z,4.60
2019-02-02T13:08:10.677Z,4.37
2019-02-02T13:10:40.057Z,5.10
2019-02-02T13:13:09.512Z,4.73
2019-02-02T13:15:38.922Z,4.20
2019-02-02T13:18:10.401Z,4.47
2019-02-02T13:20:39.470Z,4.07
2019-02-02T13:23:08.942Z,4.37
2019-02-02T13:25:38.357Z,4.80
2019-02-02T13:28:07.805Z,3.97
2019-02-02T13:30:37.712Z,3.97
2019-02-02T13:33:08.123Z,3.90
2019-02-02T13:35:40.161Z,3.73
2019-02-02T13:38:09.674Z,3.70
2019-02-02T13:40:39.148Z,3.90
2019-02-02T13:43:08.598Z,4.10
2019-02-02T13:45:38.034Z,4.73
2019-02-02T13:48:07.686Z,3.70
2019-02-02T13:50:37.147Z,6.30
2019-02-02T13:53:08.592Z,5.07
2019-02-02T13:55:39.945Z,4.50
2019-02-02T13:58:10.112Z,4.57
2019-02-02T14:00:39.531Z,4.50
2019-02-02T14:03:09.087Z,4.50
2019-02-02T14:05:39.268Z,4.13
2019-02-02T14:08:08.687Z,4.93
2019-02-02T14:10:38.137Z,4.10
2019-02-02T14:13:07.552Z,3.90
2019-02-02T14:15:39.145Z,4.17
2019-02-02T14:18:08.162Z,3.80
2019-02-02T14:20:37.699Z,3.23
2019-02-02T14:23:07.223Z,3.33
2019-02-02T14:25:36.661Z,3.80
2019-02-02T14:28:06.159Z,3.73
2019-02-02T14:30:35.616Z,3.60
2019-02-02T14:33:13.852Z,3.70
2019-02-02T14:35:37.797Z,3.33
2019-02-02T14:38:07.313Z,4.00
2019-02-02T14:40:36.761Z,3.73
2019-02-02T14:43:06.232Z,3.60
2019-02-02T14:45:35.699Z,3.93
2019-02-02T14:48:05.208Z,4.10
2019-02-02T14:50:34.745Z,3.73
2019-02-02T14:53:04.772Z,3.60
2019-02-02T14:55:34.359Z,4.07
2019-02-02T14:58:03.905Z,3.63
2019-02-02T15:00:33.554Z,4.13
2019-02-02T15:03:03.492Z,4.33
2019-02-02T15:05:42.407Z,4.53
2019-02-02T15:08:04.361Z,4.77
2019-02-02T15:10:33.812Z,4.13
2019-02-02T15:13:03.234Z,4.17
2019-02-02T15:15:32.777Z,3.90
2019-02-02T15:18:02.224Z,4.00
2019-02-02T15:20:36.547Z,4.07
2019-02-02T15:23:07.121Z,4.20
2019-02-02T15:25:36.681Z,3.83
2019-02-02T15:28:06.609Z,3.93
2019-02-02T15:30:36.557Z,4.27
2019-02-02T15:33:06.810Z,4.70
2019-02-02T15:35:36.444Z,4.87
2019-02-02T15:38:05.977Z,5.50
2019-02-02T15:40:35.420Z,5.17
2019-02-02T15:43:05.296Z,4.60
2019-02-02T15:45:34.747Z,5.13
2019-02-02T15:48:04.168Z,4.50
2019-02-02T15:50:33.673Z,5.10
2019-02-02T15:53:03.105Z,5.60
2019-02-02T15:55:32.560Z,5.80
2019-02-02T15:58:01.994Z,6.53
2019-02-02T16:00:33.645Z,5.20
2019-02-02T16:03:03.212Z,5.27
2019-02-02T16:05:32.982Z,6.80
2019-02-02T16:08:04.457Z,5.73
2019-02-02T16:10:34.453Z,6.90
2019-02-02T16:13:03.959Z,6.73
2019-02-02T16:15:34.218Z,6.20
2019-02-02T16:18:04.503Z,5.80
2019-02-02T16:20:36.266Z,6.10
2019-02-02T16:23:07.048Z,6.70
2019-02-02T16:25:36.630Z,7.00
2019-02-02T16:28:08.157Z,6.10
2019-02-02T16:30:37.671Z,6.20
2019-02-02T16:33:07.243Z,6.30
2019-02-02T16:35:36.801Z,5.73
2019-02-02T16:38:06.919Z,6.30
2019-02-02T16:40:36.309Z,5.70
2019-02-02T16:43:07.072Z,6.10
2019-02-02T16:45:36.649Z,6.03
2019-02-02T16:48:07.064Z,6.00
2019-02-02T16:50:36.572Z,5.83
2019-02-02T16:53:06.178Z,6.30
2019-02-02T16:55:35.634Z,6.27
2019-02-02T16:58:05.453Z,5.77
2019-02-02T17:00:35.012Z,6.20
2019-02-02T17:03:04.754Z,6.50
2019-02-02T17:05:34.401Z,7.43
2019-02-02T17:08:04.501Z,6.60
2019-02-02T17:10:36.025Z,7.67
2019-02-02T17:13:06.936Z,7.47
2019-02-02T17:15:36.557Z,8.23
2019-02-02T17:18:07.082Z,7.90
2019-02-02T17:20:38.837Z,8.10
2019-02-02T17:23:08.294Z,7.70
2019-02-02T17:25:37.870Z,7.50
2019-02-02T17:28:08.243Z,7.27
2019-02-02T17:30:38.809Z,6.90
2019-02-02T17:33:10.890Z,7.20
2019-02-02T17:35:40.956Z,7.67
2019-02-02T17:38:12.356Z,8.00
2019-02-02T17:40:41.907Z,7.80
2019-02-02T17:43:11.463Z,8.13
2019-02-02T17:45:40.988Z,8.73
2019-02-02T17:48:13.050Z,8.70
2019-02-02T17:50:41.695Z,9.07
2019-02-02T17:53:11.162Z,9.73
2019-02-02T17:55:40.580Z,8.63
2019-02-02T17:58:13.154Z,10.07
2019-02-02T18:00:55.585Z,10.00
2019-02-02T18:03:25.036Z,10.33
2019-02-02T18:05:54.513Z,10.50
2019-02-02T18:08:23.962Z,11.00
2019-02-02T18:10:53.453Z,11.67
2019-02-02T18:13:22.917Z,11.87
2019-02-02T18:15:52.338Z,11.87
2019-02-02T18:18:21.802Z,11.13
2019-02-02T18:20:51.241Z,10.03
2019-02-02T18:23:20.716Z,11.07
2019-02-02T18:25:50.145Z,10.90
2019-02-02T18:28:19.736Z,11.00
2019-02-02T18:30:49.243Z,19.07
2019-02-02T18:33:18.693Z,14.43
2019-02-02T18:35:48.149Z,11.43
2019-02-02T18:38:17.589Z,11.67
2019-02-02T18:40:47.075Z,11.07
2019-02-02T18:43:16.525Z,11.33
2019-02-02T18:45:45.962Z,11.20
2019-02-02T18:48:15.401Z,10.40
2019-02-02T18:50:44.935Z,11.53
2019-02-02T18:53:14.362Z,11.53
2019-02-02T18:55:53.320Z,13.40
2019-02-02T18:58:22.774Z,13.33
2019-02-02T19:00:52.219Z,13.33
2019-02-02T19:03:21.643Z,13.40
2019-02-02T19:05:51.080Z,14.20
2019-02-02T19:08:20.540Z,13.03
2019-02-02T19:10:49.993Z,13.10
2019-02-02T19:13:19.412Z,12.03
2019-02-02T19:15:48.892Z,12.90
2019-02-02T19:18:18.333Z,12.27
2019-02-02T19:20:47.817Z,11.70
2019-02-02T19:23:24.662Z,12.83
2019-02-02T19:25:48.358Z,13.57
2019-02-02T19:28:17.777Z,13.50
2019-02-02T19:30:47.262Z,13.00
2019-02-02T19:33:16.691Z,13.50
2019-02-02T19:35:46.171Z,13.10
2019-02-02T19:38:15.586Z,14.63
2019-02-02T19:40:45.047Z,15.30
2019-02-02T19:43:14.476Z,11.90
2019-02-02T19:45:43.928Z,13.37
2019-02-02T19:48:14.824Z,12.13
2019-02-02T19:50:44.370Z,11.13
2019-02-02T19:53:13.834Z,12.20
2019-02-02T19:55:43.257Z,11.73
2019-02-02T19:58:12.712Z,10.70
2019-02-02T20:00:42.176Z,12.50
2019-02-02T20:03:11.607Z,12.37
2019-02-02T20:05:41.069Z,12.93
2019-02-02T20:08:10.594Z,13.00
2019-02-02T20:10:40.193Z,13.20
2019-02-02T20:13:09.721Z,13.30
2019-02-02T20:15:39.341Z,13.90
2019-02-02T20:18:10.332Z,14.13
2019-02-02T20:20:39.839Z,13.50
2019-02-02T20:23:09.402Z,14.97
2019-02-02T20:25:38.864Z,15.63
2019-02-02T20:28:08.307Z,16.10
2019-02-02T20:30:37.875Z,17.43
2019-02-02T20:33:07.670Z,18.13
2019-02-02T20:35:42.129Z,17.90
2019-02-02T20:38:08.237Z,18.20
2019-02-02T20:40:37.740Z,16.80
2019-02-02T20:43:07.193Z,18.17
2019-02-02T20:45:37.218Z,20.10
2019-02-02T20:48:06.736Z,20.17
2019-02-02T20:50:36.150Z,19.47
2019-02-02T20:53:05.813Z,19.90
2019-02-02T20:55:38.311Z,19.80
2019-02-02T20:58:08.075Z,21.50
2019-02-02T21:00:38.112Z,20.67
2019-02-02T21:03:07.554Z,21.43
2019-02-02T21:05:37.086Z,20.67
2019-02-02T21:08:06.967Z,22.43
2019-02-02T21:10:36.406Z,22.10
2019-02-02T21:13:06.189Z,21.83
2019-02-02T21:15:35.650Z,22.53
2019-02-02T21:18:05.250Z,23.03
2019-02-02T21:20:34.982Z,22.63
2019-02-02T21:23:04.609Z,23.70
2019-02-02T21:25:34.132Z,25.30
2019-02-02T21:28:03.577Z,24.10
2019-02-02T21:30:34.784Z,25.13
2019-02-02T21:33:04.951Z,25.40
2019-02-02T21:35:34.467Z,25.90
2019-02-02T21:38:04.328Z,25.20
2019-02-02T21:40:34.835Z,25.37
2019-02-02T21:43:04.733Z,24.60
2019-02-02T21:45:34.363Z,25.00
2019-02-02T21:48:03.965Z,26.53
2019-02-02T21:50:33.399Z,24.67
2019-02-02T21:53:02.869Z,23.37
2019-02-02T21:55:32.418Z,25.30
2019-02-02T21:58:01.893Z,25.70
2019-02-02T22:00:33.562Z,28.70
2019-02-02T22:03:02.982Z,24.80
2019-02-02T22:05:32.423Z,25.83
2019-02-02T22:08:01.850Z,29.33
2019-02-02T22:10:31.319Z,26.20
2019-02-02T22:13:00.732Z,26.13
2019-02-02T22:15:30.471Z,27.63
2019-02-02T22:17:59.914Z,28.13
2019-02-02T22:20:29.434Z,29.37
2019-02-02T22:22:59.021Z,29.90
2019-02-02T22:25:30.588Z,27.17
2019-02-02T22:28:00.087Z,27.83
2019-02-02T22:30:31.548Z,28.23
2019-02-02T22:33:01.069Z,28.37
2019-02-02T22:35:30.584Z,26.17
2019-02-02T22:38:00.503Z,28.57
2019-02-02T22:40:30.183Z,29.00
2019-02-02T22:42:59.791Z,28.93
2019-02-02T22:45:29.484Z,30.67
2019-02-02T22:47:58.916Z,28.83
2019-02-02T22:50:28.900Z,27.50
2019-02-02T22:52:59.904Z,30.07
2019-02-02T22:55:30.536Z,28.00
2019-02-02T22:58:01.149Z,28.53
2019-02-02T23:00:56.097Z,29.30
2019-02-02T23:03:38.048Z,28.37
2019-02-02T23:06:48.762Z,29.60
2019-02-02T23:09:43.551Z,29.40
2019-02-02T23:12:42.580Z,31.40
2019-02-02T23:15:49.170Z,30.20
2019-02-02T23:18:18.811Z,30.93
2019-02-02T23:20:48.431Z,29.20
2019-02-02T23:23:18.003Z,31.53
2019-02-02T23:25:47.558Z,31.10
2019-02-02T23:28:17.230Z,31.70
2019-02-02T23:30:46.663Z,30.43
2019-02-02T23:33:16.264Z,29.63
2019-02-02T23:35:45.724Z,31.20
2019-02-02T23:38:15.389Z,30.50
2019-02-02T23:40:44.878Z,29.80
2019-02-02T23:43:15.482Z,29.73
2019-02-02T23:45:45.244Z,32.83
2019-02-02T23:48:14.810Z,32.27
2019-02-02T23:50:44.653Z,29.37
2019-02-02T23:53:14.309Z,31.23
2019-02-02T23:55:43.909Z,31.67
2019-02-02T23:58:13.467Z,29.97
